Time;durP1;ratioP1;P1;durP2;ratioP2;P2;SDS_P1;SDS_P2;PMS_P1;PMS_P2;Temp;Humidity;BMP_temperature;BMP_pressure;BME280_temperature;BME280_humidity;BME280_pressure;Samples;Min_cycle;Max_cycle;Signal;HPM_P1;HPM_P2
2021/05/12 01:49:20;;;;;;;4.87;4.22;;;;;;;8.51;100.00;100847.20;1641433;86;22330;-94
2021/05/12 03:33:13;;;;;;;6.50;5.90;;;;;;;8.36;100.00;100874.45;1748087;81;21147;-92
2021/05/12 03:36:21;;;;;;;7.03;6.33;;;;;;;8.42;100.00;100881.48;1750409;81;21195;-93
2021/05/12 03:40:33;;;;;;;8.18;5.65;;;;;;;8.53;100.00;100875.20;1810737;79;21865;-91
2021/05/12 03:43:07;;;;;;;6.15;5.62;;;;;;;8.56;100.00;100878.06;1771748;80;21123;-92
2021/05/12 08:05:26;;;;;;;6.00;4.03;;;;;;;9.51;100.00;100863.77;1703746;81;21059;-93
2021/05/12 08:07:53;;;;;;;5.25;4.10;;;;;;;9.40;100.00;100876.17;1659510;85;21056;-92
2021/05/12 08:10:20;;;;;;;8.93;4.45;;;;;;;9.42;100.00;100871.23;1696658;83;21033;-93
2021/05/12 08:13:11;;;;;;;9.15;6.17;;;;;;;9.49;100.00;100859.16;1655878;85;22657;-93
2021/05/12 08:16:17;;;;;;;;;;;;;;;9.58;100.00;100856.77;1686096;84;21948;-93
2021/05/12 08:22:54;;;;;;;12.82;6.37;;;;;;;9.91;100.00;100859.77;1709291;80;20999;-96
2021/05/12 08:25:43;;;;;;;6.62;5.42;;;;;;;10.10;100.00;100848.47;1663974;83;22219;-96
2021/05/12 08:36:26;;;;;;;7.50;4.90;;;;;;;10.51;100.00;100843.91;1717686;82;21461;-94
2021/05/12 08:43:34;;;;;;;6.28;5.67;;;;;;;10.71;100.00;100839.06;1718145;82;21103;-94
2021/05/12 08:54:13;;;;;;;5.10;4.60;;;;;;;10.73;100.00;100841.91;1691497;83;21003;-92
2021/05/12 08:56:41;;;;;;;5.03;4.15;;;;;;;10.54;100.00;100839.80;1690339;83;21099;-93
2021/05/12 09:10:50;;;;;;;5.78;4.33;;;;;;;10.64;100.00;100824.34;1706179;80;21072;-95
2021/05/12 09:13:51;;;;;;;3.60;3.30;;;;;;;10.93;100.00;100814.05;1703747;83;21089;-95
2021/05/12 09:24:40;;;;;;;3.35;2.90;;;;;;;12.03;100.00;100796.69;1634795;85;21179;-94
2021/05/12 09:27:33;;;;;;;4.65;2.85;;;;;;;12.28;100.00;100787.28;1674911;84;21601;-95
2021/05/12 09:41:35;;;;;;;4.37;3.65;;;;;;;12.43;100.00;100784.38;1709367;83;21645;-93
2021/05/12 09:44:04;;;;;;;5.08;3.50;;;;;;;12.52;100.00;100782.80;1675198;84;21011;-93
2021/05/12 09:46:40;;;;;;;6.17;4.05;;;;;;;12.54;100.00;100782.21;1667419;83;21134;-94
2021/05/12 09:53:18;;;;;;;5.10;3.33;;;;;;;12.60;100.00;100775.17;1702786;83;21710;-95
2021/05/12 10:02:48;;;;;;;9.63;4.37;;;;;;;12.49;100.00;100768.22;1651445;83;21031;-95
2021/05/12 10:09:50;;;;;;;5.60;5.10;;;;;;;12.57;100.00;100757.16;1675709;85;21122;-95
2021/05/12 10:20:27;;;;;;;3.75;3.30;;;;;;;13.67;100.00;100751.97;1673110;83;21586;-92
2021/05/12 10:23:29;;;;;;;4.67;3.30;;;;;;;13.91;100.00;100745.56;1659730;84;21107;-94
2021/05/12 10:34:22;;;;;;;3.33;3.12;;;;;;;14.14;100.00;100746.17;1687983;83;21015;-92
2021/05/12 10:37:19;;;;;;;5.75;3.62;;;;;;;13.83;100.00;100751.48;1671576;82;21377;-95
2021/05/12 12:46:58;;;;;;;12.43;3.80;;;;;;;10.80;100.00;100718.58;1733920;82;21024;-94
2021/05/12 12:49:57;;;;;;;6.10;3.10;;;;;;;10.88;100.00;100723.20;1690976;82;21051;-93
2021/05/12 12:56:50;;;;;;;10.93;4.50;;;;;;;10.98;100.00;100724.18;1703290;84;21064;-92
2021/05/12 12:59:18;;;;;;;7.65;4.78;;;;;;;10.99;100.00;100732.81;1692934;82;23315;-92
2021/05/12 13:01:45;;;;;;;7.45;4.65;;;;;;;10.99;100.00;100729.75;1714336;82;21900;-93
2021/05/12 13:04:20;;;;;;;7.00;5.00;;;;;;;11.00;100.00;100727.97;1706048;83;20994;-93
2021/05/12 13:11:11;;;;;;;8.03;5.39;;;;;;;10.99;100.00;100724.55;1691550;82;5184781;-93
2021/05/12 13:14:16;;;;;;;8.33;4.85;;;;;;;11.01;100.00;100713.55;1677954;79;399940;-88
2021/05/12 13:16:46;;;;;;;6.87;4.75;;;;;;;11.09;100.00;100719.95;1640491;86;20967;-83
2021/05/12 13:19:15;;;;;;;7.37;3.98;;;;;;;11.19;100.00;100719.58;1646310;86;21690;-82
2021/05/12 13:21:58;;;;;;;9.48;3.90;;;;;;;11.27;100.00;100711.19;1646315;85;21071;-85
2021/05/12 13:24:26;;;;;;;5.00;4.03;;;;;;;11.33;100.00;100711.56;1636179;86;21125;-85
2021/05/12 13:26:59;;;;;;;5.65;4.25;;;;;;;11.34;100.00;100708.47;1588877;87;21124;-88
2021/05/12 13:29:27;;;;;;;5.47;4.45;;;;;;;11.30;100.00;100695.30;1589019;89;21001;-86
2021/05/12 13:31:54;;;;;;;7.50;4.10;;;;;;;11.30;100.00;100694.84;1579903;89;23283;-85
2021/05/12 13:34:24;;;;;;;5.50;4.70;;;;;;;11.28;100.00;100694.13;1610603;87;21079;-86
2021/05/12 13:36:54;;;;;;;5.70;5.17;;;;;;;11.25;100.00;100697.44;1589149;87;22248;-82
2021/05/12 13:39:23;;;;;;;7.37;4.90;;;;;;;11.21;100.00;100696.84;1595117;88;21140;-87
2021/05/12 13:41:50;;;;;;;7.50;5.85;;;;;;;11.16;100.00;100693.77;1589058;87;21641;-85
2021/05/12 13:44:17;;;;;;;6.28;5.22;;;;;;;11.14;100.00;100689.14;1588541;89;21116;-89
2021/05/12 13:46:46;;;;;;;6.25;4.97;;;;;;;11.16;100.00;100689.38;1589043;89;21255;-88
2021/05/12 13:49:14;;;;;;;10.82;5.25;;;;;;;11.21;100.00;100687.72;1589110;89;21113;-85
2021/05/12 13:51:45;;;;;;;8.63;4.95;;;;;;;11.27;100.00;100682.03;1597096;87;21084;-86
2021/05/12 13:54:18;;;;;;;11.53;6.15;;;;;;;11.31;100.00;100677.41;1603001;87;21061;-84
2021/05/12 14:01:54;;;;;;;10.48;6.03;;;;;;;11.36;100.00;100676.11;1577748;88;21153;-84
2021/05/12 14:04:15;;;;;;;6.87;5.03;;;;;;;11.36;100.00;100670.89;1584774;89;21095;-85
2021/05/12 14:06:42;;;;;;;32.25;8.33;;;;;;;11.36;100.00;100662.27;1589284;89;21129;-85
2021/05/12 14:09:20;;;;;;;11.93;4.78;;;;;;;11.37;100.00;100663.92;1582088;90;22697;-90
2021/05/12 14:11:54;;;;;;;9.23;5.08;;;;;;;11.47;100.00;100662.72;1583283;89;21123;-86
2021/05/12 14:17:49;;;;;;;8.35;4.10;;;;;;;11.47;100.00;100666.63;1625907;86;21012;-86
2021/05/12 14:19:32;;;;;;;5.40;3.45;;;;;;;11.35;100.00;100662.72;1606211;87;21154;-85
2021/05/12 14:21:59;;;;;;;4.03;3.22;;;;;;;11.23;100.00;100667.59;1622203;86;22554;-84
2021/05/12 14:27:09;;;;;;;9.50;2.17;;;;;;;11.08;100.00;100665.67;1871513;75;22696;-86
2021/05/12 14:29:38;;;;;;;12.95;2.62;;;;;;;10.94;100.00;100668.02;1838922;77;21500;-86
2021/05/12 14:32:06;;;;;;;12.45;2.05;;;;;;;10.91;100.00;100672.19;1809143;77;22667;-85
2021/05/12 14:34:34;;;;;;;8.98;2.00;;;;;;;10.91;100.00;100666.12;1808997;78;20969;-87
2021/05/12 14:37:01;;;;;;;7.42;1.95;;;;;;;10.94;100.00;100670.63;1809347;77;21009;-83
2021/05/12 14:39:32;;;;;;;26.10;3.30;;;;;;;11.10;100.00;100672.06;1809233;78;21016;-92
2021/05/12 14:41:56;;;;;;;7.60;1.52;;;;;;;11.18;100.00;100676.22;1809682;77;21017;-85
2021/05/12 14:44:23;;;;;;;11.15;2.05;;;;;;;11.24;100.00;100673.62;1808552;77;21019;-87
2021/05/12 14:46:50;;;;;;;6.83;1.75;;;;;;;11.25;100.00;100676.12;1809272;78;20982;-87
2021/05/12 14:49:17;;;;;;;7.92;1.62;;;;;;;11.25;100.00;100675.28;1809108;77;20950;-89
2021/05/12 14:51:56;;;;;;;19.35;2.27;;;;;;;11.22;100.00;100673.75;1809287;77;21021;-88
2021/05/12 14:54:18;;;;;;;24.85;3.30;;;;;;;11.24;100.00;100666.65;1809189;77;21658;-85
2021/05/12 14:56:47;;;;;;;13.68;1.98;;;;;;;11.26;100.00;100669.94;1839204;76;21235;-83
2021/05/12 15:07:22;;;;;;;6.17;2.00;;;;;;;11.38;100.00;100660.34;1809049;78;21552;-88
2021/05/12 15:09:51;;;;;;;26.97;2.80;;;;;;;11.45;100.00;100658.09;1837378;77;22021;-87
2021/05/12 15:12:18;;;;;;;13.18;1.98;;;;;;;11.40;100.00;100659.75;1766797;78;231972;-86
2021/05/12 15:14:59;;;;;;;;;;;;;;;;;;;;;
2021/05/12 15:17:22;;;;;;;3.52;1.70;;;;;;;11.22;100.00;100657.29;1656828;80;21086;-85
2021/05/12 15:19:49;;;;;;;28.42;3.35;;;;;;;11.13;100.00;100652.30;1698736;81;21055;-85
2021/05/12 15:22:16;;;;;;;51.05;5.33;;;;;;;11.06;100.00;100657.14;1712799;81;21093;-85
2021/05/12 15:24:54;;;;;;;3.67;2.10;;;;;;;11.04;100.00;100657.27;1717456;80;21077;-86
2021/05/12 15:27:23;;;;;;;10.68;2.33;;;;;;;11.08;100.00;100653.13;1726441;81;21113;-83
2021/05/12 15:29:51;;;;;;;18.40;2.77;;;;;;;11.13;100.00;100657.05;1711640;82;21110;-84
2021/05/12 15:32:18;;;;;;;8.20;2.40;;;;;;;11.23;100.00;100655.86;1706819;81;21011;-85
2021/05/12 15:34:45;;;;;;;12.30;2.30;;;;;;;11.31;100.00;100653.48;1704187;81;21135;-82
2021/05/12 15:37:12;;;;;;;20.77;3.20;;;;;;;11.38;100.00;100659.52;1727235;81;21094;-85
2021/05/12 15:39:38;;;;;;;35.80;4.28;;;;;;;11.44;100.00;100655.13;1710738;81;21070;-85
2021/05/12 15:42:06;;;;;;;2.87;1.60;;;;;;;11.50;100.00;100655.48;1681618;83;21078;-87
2021/05/12 15:44:33;;;;;;;34.75;3.62;;;;;;;11.48;100.00;100647.44;1706895;81;21111;-88
2021/05/12 15:47:00;;;;;;;3.00;2.00;;;;;;;11.45;100.00;100649.81;1706822;82;21545;-85
2021/05/12 15:49:27;;;;;;;35.48;3.83;;;;;;;11.47;100.00;100650.50;1682641;81;21107;-89
2021/05/12 15:51:54;;;;;;;2.00;1.80;;;;;;;11.46;100.00;100655.84;1716471;80;21038;-84
2021/05/12 15:54:20;;;;;;;26.17;3.45;;;;;;;11.48;100.00;100652.65;1708453;80;21153;-86
2021/05/12 15:56:47;;;;;;;7.80;1.92;;;;;;;11.41;100.00;100652.78;1708387;80;21073;-87
2021/05/12 15:59:14;;;;;;;4.62;2.45;;;;;;;11.36;100.00;100655.25;1732360;81;21030;-86
2021/05/12 16:01:41;;;;;;;41.23;4.37;;;;;;;11.33;100.00;100650.75;1730438;81;20978;-84
2021/05/12 16:04:08;;;;;;;24.12;3.47;;;;;;;11.33;100.00;100642.94;1715773;82;21071;-85
2021/05/12 16:06:35;;;;;;;6.70;1.90;;;;;;;11.40;100.00;100637.59;1696684;82;21107;-83
2021/05/12 16:09:03;;;;;;;6.85;1.70;;;;;;;11.43;100.00;100642.58;1696636;82;21111;-86
2021/05/12 16:11:32;;;;;;;36.65;3.30;;;;;;;11.45;100.00;100642.45;1644352;85;23565;-85
2021/05/12 16:14:00;;;;;;;13.32;2.15;;;;;;;11.42;100.00;100637.00;1631804;84;21151;-87
2021/05/12 16:16:27;;;;;;;17.05;2.30;;;;;;;11.43;100.00;100639.12;1671883;83;21089;-93
2021/05/12 16:18:54;;;;;;;27.77;2.55;;;;;;;11.45;100.00;100635.93;1652084;84;22097;-86
2021/05/12 16:21:21;;;;;;;15.95;2.02;;;;;;;11.51;100.00;100634.14;1652586;84;21095;-87
2021/05/12 16:23:47;;;;;;;8.90;1.52;;;;;;;11.56;100.00;100627.25;1676086;84;21103;-87
2021/05/12 16:26:14;;;;;;;30.23;3.12;;;;;;;11.61;100.00;100635.08;1651743;84;21150;-84
2021/05/12 16:28:41;;;;;;;29.87;3.17;;;;;;;11.62;100.00;100634.59;1653567;85;21188;-85
2021/05/12 16:31:08;;;;;;;67.87;5.00;;;;;;;11.64;100.00;100637.45;1657679;84;21118;-89
2021/05/12 16:33:36;;;;;;;61.58;4.17;;;;;;;11.64;100.00;100630.93;1661802;84;21139;-88
2021/05/12 16:36:04;;;;;;;37.08;3.27;;;;;;;11.65;100.00;100629.98;1654604;84;22732;-83
2021/05/12 16:38:31;;;;;;;70.20;4.75;;;;;;;11.68;100.00;100628.42;1654713;85;21314;-86
2021/05/12 16:40:58;;;;;;;44.93;4.33;;;;;;;11.71;100.00;100623.92;1676196;84;21703;-84
2021/05/12 16:43:25;;;;;;;21.07;2.25;;;;;;;11.67;100.00;100621.54;1666025;84;21129;-85
2021/05/12 16:45:52;;;;;;;21.42;2.20;;;;;;;11.61;100.00;100616.81;1662153;84;21114;-91
2021/05/12 16:48:20;;;;;;;13.05;2.62;;;;;;;11.55;100.00;100617.77;1649737;85;21180;-86
2021/05/12 16:50:48;;;;;;;9.90;1.75;;;;;;;11.50;100.00;100615.52;1627840;86;21102;-86
2021/05/12 16:53:16;;;;;;;8.63;1.60;;;;;;;11.49;100.00;100615.20;1650686;84;21072;-84
2021/05/12 16:55:44;;;;;;;19.48;2.12;;;;;;;11.50;100.00;100617.67;1670066;84;21708;-87
2021/05/12 16:58:11;;;;;;;3.58;1.50;;;;;;;11.48;100.00;100615.66;1653678;84;21067;-87
2021/05/12 17:00:38;;;;;;;3.27;1.50;;;;;;;11.49;100.00;100612.10;1654026;85;21147;-87
2021/05/12 17:03:05;;;;;;;6.33;1.62;;;;;;;11.50;100.00;100609.00;1653540;85;21127;-87
2021/05/12 17:05:32;;;;;;;1.60;1.40;;;;;;;11.42;100.00;100600.50;1677938;84;21091;-87
2021/05/12 17:08:09;;;;;;;81.00;5.55;;;;;;;11.23;100.00;100608.09;1674985;84;21143;-83
2021/05/12 17:10:43;;;;;;;35.35;4.45;;;;;;;11.07;100.00;100603.27;1652109;84;21597;-85
2021/05/12 17:13:10;;;;;;;34.98;3.20;;;;;;;11.05;100.00;100608.61;1653110;85;21119;-85
2021/05/12 17:15:37;;;;;;;14.70;2.17;;;;;;;11.07;100.00;100613.69;1644489;85;21146;-83
2021/05/12 17:18:04;;;;;;;5.92;1.70;;;;;;;11.09;100.00;100610.50;1632445;84;21098;-85
2021/05/12 17:20:31;;;;;;;8.83;1.65;;;;;;;11.09;100.00;100610.50;1653292;84;21162;-84
2021/05/12 17:23:01;;;;;;;2.17;1.62;;;;;;;11.01;100.00;100605.41;1653551;85;21730;-83
2021/05/12 17:25:30;;;;;;;8.58;2.00;;;;;;;10.86;100.00;100615.22;1669128;84;21379;-88
2021/05/12 17:28:00;;;;;;;13.30;2.00;;;;;;;10.73;100.00;100606.20;1663269;84;21137;-83
2021/05/12 17:30:28;;;;;;;16.97;3.02;;;;;;;10.65;100.00;100602.53;1646649;85;21151;-82
2021/05/12 17:32:57;;;;;;;20.23;2.50;;;;;;;10.62;100.00;100607.48;1627592;85;21233;-86
2021/05/12 17:35:24;;;;;;;13.68;2.22;;;;;;;10.63;100.00;100605.72;1671666;83;21608;-84
2021/05/12 17:37:53;;;;;;;33.73;3.70;;;;;;;10.67;100.00;100611.88;1700013;83;21796;-86
2021/05/12 17:40:21;;;;;;;14.65;3.40;;;;;;;10.69;100.00;100612.61;1661362;84;21131;-85
2021/05/12 17:42:50;;;;;;;18.82;2.70;;;;;;;10.64;100.00;100614.70;1625452;85;21130;-86
2021/05/12 17:45:39;;;;;;;;;;;;;;;;;;;;;
2021/05/12 17:48:16;;;;;;;;;;;;;;;;;;;;;
2021/05/12 17:50:38;;;;;;;35.23;3.02;;;;;;;10.51;100.00;100607.47;1688054;82;21157;-84
2021/05/12 17:53:13;;;;;;;31.52;3.45;;;;;;;10.59;100.00;100607.73;1694240;81;21166;-83
2021/05/12 17:55:50;;;;;;;;;;;;;;;;;;;;;
2021/05/12 17:58:13;;;;;;;;;;;;;;;10.76;100.00;100606.92;1664665;80;21126;-87
2021/05/12 18:00:49;;;;;;;;;;;;;;;;;;;;;
2021/05/12 18:03:24;;;;;;;;;;;;;;;;;;;;;
2021/05/12 18:05:56;;;;;;;;;;;;;;;;;;;;;
2021/05/12 18:08:20;;;;;;;4.85;3.83;;;;;;;10.63;100.00;100603.94;1617934;86;21573;-83
2021/05/12 18:10:57;;;;;;;8.60;4.45;;;;;;;10.61;100.00;100602.39;1631867;84;21096;-88
2021/05/12 18:18:40;;;;;;;5.15;3.75;;;;;;;10.56;100.00;100593.17;1673591;83;21218;-86
2021/05/12 18:21:09;;;;;;;9.68;3.87;;;;;;;10.51;100.00;100588.77;1684616;83;20983;-86
2021/05/12 18:23:38;;;;;;;4.40;3.05;;;;;;;10.47;100.00;100589.95;1672823;83;21058;-86
2021/05/12 18:26:09;;;;;;;4.67;3.20;;;;;;;10.43;100.00;100589.00;1679577;81;20968;-89
2021/05/12 18:28:36;;;;;;;;;;;;;;;10.39;100.00;100586.61;1667390;82;22154;-89
2021/05/12 18:31:04;;;;;;;3.30;2.50;;;;;;;10.36;100.00;100585.98;1753315;80;20695;-85
2021/05/12 18:33:36;;;;;;;3.90;2.58;;;;;;;10.30;100.00;100583.84;1718728;81;21536;-87
2021/05/12 18:38:52;;;;;;;5.03;3.20;;;;;;;10.19;100.00;100584.16;1619625;87;21709;-85
2021/05/12 18:44:13;;;;;;;;;;;;;;;;;;;;;
2021/05/12 18:46:35;;;;;;;10.23;5.58;;;;;;;10.15;100.00;100588.40;1769684;77;21056;-84
2021/05/12 18:49:01;;;;;;;6.80;5.45;;;;;;;10.14;100.00;100590.64;1763985;78;21919;-89
2021/05/12 18:51:27;;;;;;;8.03;5.95;;;;;;;10.11;100.00;100599.50;1824068;77;21002;-88
2021/05/12 18:53:58;;;;;;;5.72;4.70;;;;;;;10.05;100.00;100598.66;1824882;77;20864;-87
2021/05/12 18:56:24;;;;;;;5.05;3.87;;;;;;;9.97;100.00;100599.69;1808578;77;21013;-88
2021/05/12 18:58:51;;;;;;;3.25;2.98;;;;;;;9.77;100.00;100601.50;1815322;77;20945;-87
2021/05/12 19:01:20;;;;;;;6.42;3.00;;;;;;;9.57;100.00;100604.22;1827239;77;22574;-88
2021/05/12 19:03:48;;;;;;;5.97;4.20;;;;;;;9.42;100.00;100604.83;1825669;77;21508;-86
2021/05/12 19:06:20;;;;;;;10.93;7.37;;;;;;;9.33;100.00;100608.55;1815334;77;20966;-86
2021/05/12 19:11:37;;;;;;;17.87;9.35;;;;;;;9.29;100.00;100611.84;1821246;76;21026;-85
2021/05/12 19:14:05;;;;;;;;;;;;;;;;;;;;;
2021/05/12 19:16:29;;;;;;;9.88;7.45;;;;;;;9.24;100.00;100607.44;1781378;78;21114;-85
2021/05/12 19:21:25;;;;;;;11.35;7.87;;;;;;;9.24;100.00;100617.34;1814006;77;21042;-85
2021/05/12 19:40:09;;;;;;;6.75;3.87;;;;;;;9.13;100.00;100610.30;1825472;77;22221;-84
2021/05/12 19:42:27;;;;;;;4.00;3.60;;;;;;;9.11;100.00;100610.05;1822653;77;21117;-87
2021/05/12 19:44:53;;;;;;;5.70;5.10;;;;;;;9.08;100.00;100615.00;1825624;77;20967;-87
2021/05/12 19:47:20;;;;;;;5.90;4.75;;;;;;;9.07;100.00;100615.92;1825229;77;21109;-86
2021/05/12 19:49:50;;;;;;;5.42;4.90;;;;;;;8.99;100.00;100615.63;1820393;77;20919;-87
2021/05/12 19:52:17;;;;;;;5.92;5.33;;;;;;;8.86;100.00;100606.53;1826040;77;22601;-83
2021/05/12 19:54:50;;;;;;;4.80;4.35;;;;;;;8.73;100.00;100603.13;1825748;77;21498;-88
2021/05/12 19:59:46;;;;;;;4.65;4.25;;;;;;;8.77;100.00;100605.38;1856743;77;26254;-84
2021/05/12 20:02:18;;;;;;;5.37;4.25;;;;;;;8.85;100.00;100607.47;1826243;77;21904;-86
2021/05/12 20:04:43;;;;;;;7.92;4.15;;;;;;;8.79;100.00;100604.81;1851968;76;21125;-84
2021/05/12 20:07:17;;;;;;;13.85;5.78;;;;;;;8.71;100.00;100605.80;1825612;77;20900;-86
2021/05/12 20:10:02;;;;;;;7.00;4.58;;;;;;;8.65;100.00;100615.30;1852089;76;20887;-86
2021/05/12 20:12:21;;;;;;;7.12;4.70;;;;;;;8.63;100.00;100615.41;1852014;76;20888;-86
2021/05/12 20:14:45;;;;;;;4.35;3.90;;;;;;;8.64;100.00;100613.64;1852628;76;20840;-85
2021/05/12 20:17:12;;;;;;;3.92;3.45;;;;;;;8.72;100.00;100610.54;1856673;77;21049;-85
2021/05/12 20:19:39;;;;;;;3.30;3.00;;;;;;;8.73;100.00;100613.02;1856572;76;21544;-86
2021/05/12 20:22:06;;;;;;;4.65;2.90;;;;;;;8.68;100.00;100612.03;1796230;77;20994;-86
2021/05/12 20:24:36;;;;;;;4.80;3.17;;;;;;;8.64;100.00;100617.53;1820467;78;20950;-84
2021/05/12 20:27:04;;;;;;;;;;;;;;;8.60;100.00;100611.72;1784429;78;20933;-84
2021/05/12 20:29:32;;;;;;;4.05;3.10;;;;;;;8.58;100.00;100617.95;1832870;77;20999;-86
2021/05/12 20:31:59;;;;;;;4.28;2.98;;;;;;;8.53;100.00;100612.58;1801203;77;21004;-86
2021/05/12 20:37:13;;;;;;;3.08;2.77;;;;;;;8.55;100.00;100616.84;1832640;77;20932;-87
2021/05/12 20:39:40;;;;;;;5.22;3.10;;;;;;;8.56;100.00;100616.77;1830696;77;20928;-86
2021/05/12 20:42:09;;;;;;;4.72;3.10;;;;;;;8.58;100.00;100617.47;1808641;77;20909;-86
2021/05/12 20:44:36;;;;;;;6.42;3.40;;;;;;;8.66;100.00;100619.56;1807067;78;20924;-86
2021/05/12 20:47:06;;;;;;;3.92;3.50;;;;;;;8.75;100.00;100624.59;1807758;78;21468;-86
2021/05/12 20:49:35;;;;;;;5.30;3.90;;;;;;;8.81;100.00;100619.83;1830639;78;20972;-84
2021/05/12 20:52:04;;;;;;;4.12;3.72;;;;;;;8.78;100.00;100622.63;1810697;78;21510;-86
2021/05/12 20:54:31;;;;;;;4.67;3.58;;;;;;;8.69;100.00;100618.08;1763511;78;21803;-86
2021/05/12 20:56:58;;;;;;;5.17;3.37;;;;;;;8.63;100.00;100621.06;1722979;80;20908;-85
2021/05/12 20:59:25;;;;;;;4.22;3.10;;;;;;;8.57;100.00;100620.17;1717465;79;21011;-86
2021/05/12 21:01:53;;;;;;;7.97;2.92;;;;;;;8.48;100.00;100612.55;1749585;80;20998;-86
2021/05/12 21:04:22;;;;;;;2.80;2.60;;;;;;;8.40;100.00;100622.09;1710847;80;142793;-86
2021/05/12 21:06:49;;;;;;;2.80;2.60;;;;;;;8.33;100.00;100616.94;1696954;82;21069;-85
2021/05/12 21:09:16;;;;;;;3.47;2.87;;;;;;;8.27;100.00;100618.65;1704362;82;20963;-83
2021/05/12 21:11:43;;;;;;;6.90;3.17;;;;;;;8.22;100.00;100618.95;1703401;83;20904;-83
2021/05/12 21:14:10;;;;;;;4.72;3.50;;;;;;;8.21;100.00;100615.98;1703458;82;20932;-85
2021/05/12 21:16:39;;;;;;;7.58;3.10;;;;;;;8.22;100.00;100615.05;1703422;84;20972;-85
2021/05/12 21:19:09;;;;;;;5.40;3.00;;;;;;;8.19;100.00;100612.20;1703322;83;20960;-87
2021/05/12 21:21:39;;;;;;;6.83;3.15;;;;;;;8.18;100.00;100610.98;1703374;84;20976;-87
2021/05/12 21:24:05;;;;;;;4.72;2.83;;;;;;;8.16;100.00;100613.69;1699615;83;20929;-85
2021/05/12 21:26:33;;;;;;;4.30;3.35;;;;;;;8.15;100.00;100612.02;1677193;84;21984;-84
2021/05/12 21:29:00;;;;;;;3.27;2.98;;;;;;;8.14;100.00;100609.05;1677341;84;21471;-84
2021/05/12 21:31:27;;;;;;;3.33;2.80;;;;;;;8.11;100.00;100604.09;1703517;83;21928;-84
2021/05/12 21:33:55;;;;;;;3.92;2.77;;;;;;;8.07;100.00;100599.20;1677706;82;21985;-86
2021/05/12 21:36:22;;;;;;;3.47;3.08;;;;;;;8.05;100.00;100607.91;1704925;82;21422;-85
2021/05/12 21:38:50;;;;;;;3.72;2.65;;;;;;;8.02;100.00;100600.31;1705084;82;21593;-86
2021/05/12 21:41:19;;;;;;;3.42;3.08;;;;;;;8.01;100.00;100596.05;1674219;84;20947;-86
2021/05/12 21:43:47;;;;;;;2.83;2.42;;;;;;;7.99;100.00;100599.67;1646261;86;20995;-84
2021/05/12 21:46:15;;;;;;;3.52;3.02;;;;;;;7.95;100.00;100604.23;1621651;87;21000;-86
2021/05/12 21:48:42;;;;;;;3.20;2.87;;;;;;;7.89;100.00;100600.27;1649245;84;21044;-87
2021/05/12 21:51:09;;;;;;;4.03;3.25;;;;;;;7.84;100.00;100597.14;1631080;88;20972;-84
2021/05/12 21:53:36;;;;;;;4.53;3.22;;;;;;;7.80;100.00;100597.44;1631128;87;20981;-86
2021/05/12 21:56:09;;;;;;;3.27;3.08;;;;;;;7.74;100.00;100590.88;1631263;88;21071;-86
2021/05/12 21:58:33;;;;;;;6.12;3.37;;;;;;;7.70;100.00;100592.02;1628109;88;21522;-86
2021/05/12 22:01:00;;;;;;;4.72;3.22;;;;;;;7.67;100.00;100590.45;1631237;87;21001;-88
2021/05/12 22:03:31;;;;;;;6.72;2.98;;;;;;;7.66;100.00;100593.97;1631111;87;21021;-86
2021/05/12 22:25:21;;;;;;;8.30;3.98;;;;;;;7.55;100.00;100579.10;1664293;84;21008;-86
2021/05/12 22:30:26;;;;;;;7.35;3.15;;;;;;;7.53;100.00;100583.54;1665909;86;20991;-87
2021/05/12 22:32:56;;;;;;;4.25;3.62;;;;;;;7.53;100.00;100589.20;1664476;85;20972;-85
2021/05/12 22:35:27;;;;;;;4.45;3.80;;;;;;;7.51;100.00;100587.98;1664457;86;20986;-86
2021/05/12 22:37:56;;;;;;;6.47;4.37;;;;;;;7.52;100.00;100584.95;1664391;86;20956;-87
2021/05/12 22:40:26;;;;;;;6.03;4.60;;;;;;;7.58;100.00;100590.55;1664513;85;20955;-86
2021/05/12 22:42:54;;;;;;;7.03;4.73;;;;;;;7.61;100.00;100584.34;1685365;84;20980;-84
2021/05/12 22:45:21;;;;;;;11.28;5.78;;;;;;;7.64;100.00;100578.97;1678609;83;21525;-85
2021/05/12 22:47:48;;;;;;;8.33;5.12;;;;;;;7.68;100.00;100587.38;1700921;83;21049;-83
2021/05/12 22:50:25;;;;;;;10.82;4.95;;;;;;;7.69;100.00;100578.69;1678482;84;21067;-86
2021/05/12 22:52:57;;;;;;;7.92;6.00;;;;;;;7.71;100.00;100584.12;1700819;84;21612;-83
2021/05/12 22:55:28;;;;;;;13.55;6.92;;;;;;;7.74;100.00;100579.21;1697706;84;20897;-88
2021/05/12 22:57:50;;;;;;;7.67;6.00;;;;;;;7.76;100.00;100586.91;1697575;83;20908;-86
2021/05/12 23:00:19;;;;;;;10.75;5.90;;;;;;;7.80;100.00;100585.33;1700823;83;21538;-84
2021/05/12 23:02:47;;;;;;;8.03;5.22;;;;;;;7.82;100.00;100587.33;1700827;83;20944;-85
2021/05/12 23:05:15;;;;;;;7.40;5.00;;;;;;;7.85;100.00;100585.84;1700878;83;20968;-83
2021/05/12 23:07:43;;;;;;;6.67;4.53;;;;;;;7.86;100.00;100584.92;1701015;83;20987;-87
2021/05/12 23:10:12;;;;;;;4.90;4.40;;;;;;;7.87;100.00;100586.59;1678632;84;20940;-85
2021/05/12 23:12:40;;;;;;;5.28;4.62;;;;;;;7.87;100.00;100591.77;1700871;84;21045;-86
2021/05/12 23:15:08;;;;;;;7.80;4.30;;;;;;;7.87;100.00;100585.73;1700771;83;21502;-86
2021/05/12 23:17:36;;;;;;;5.92;5.00;;;;;;;7.84;100.00;100585.48;1701000;83;20913;-85
2021/05/12 23:20:06;;;;;;;6.62;4.72;;;;;;;7.82;100.00;100591.22;1700793;83;21573;-86
2021/05/12 23:22:33;;;;;;;4.53;4.12;;;;;;;7.80;100.00;100598.73;1700868;83;20937;-84
2021/05/12 23:25:01;;;;;;;4.72;4.25;;;;;;;7.75;100.00;100604.20;1700914;83;21038;-85
2021/05/12 23:27:28;;;;;;;5.12;4.33;;;;;;;7.61;100.00;100603.77;1700867;83;20928;-85
2021/05/12 23:29:58;;;;;;;5.28;4.22;;;;;;;7.53;100.00;100602.16;1700990;84;20967;-86
2021/05/12 23:32:23;;;;;;;4.95;4.40;;;;;;;7.50;100.00;100610.92;1697640;83;21511;-85
2021/05/12 23:34:51;;;;;;;4.40;4.00;;;;;;;7.44;100.00;100608.73;1701013;83;20880;-85
2021/05/12 23:37:17;;;;;;;5.37;4.67;;;;;;;7.34;100.00;100617.98;1700937;84;22158;-85
2021/05/12 23:39:46;;;;;;;5.00;4.50;;;;;;;7.25;100.00;100616.33;1700973;84;20921;-87
2021/05/12 23:42:18;;;;;;;6.15;5.35;;;;;;;7.22;100.00;100607.91;1701000;83;21922;-84
2021/05/12 23:44:42;;;;;;;5.62;4.97;;;;;;;7.23;100.00;100616.91;1691378;84;20972;-83
2021/05/12 23:47:11;;;;;;;5.97;5.20;;;;;;;7.30;100.00;100616.52;1690490;84;20968;-85
2021/05/12 23:49:38;;;;;;;5.20;4.70;;;;;;;7.28;100.00;100618.37;1690598;84;21614;-85
2021/05/12 23:52:05;;;;;;;5.60;4.08;;;;;;;7.18;100.00;100620.22;1666288;84;20948;-87
2021/05/12 23:54:33;;;;;;;7.80;4.47;;;;;;;7.14;100.00;100625.67;1666485;84;20944;-86
2021/05/12 23:56:59;;;;;;;5.20;4.60;;;;;;;7.16;100.00;100626.42;1690505;84;21585;-84
2021/05/12 23:59:26;;;;;;;5.83;4.72;;;;;;;7.19;100.00;100624.48;1690580;84;20965;-84
